<?xml version="1.0" encoding="UTF-8" standalone="no" ?>
<gpx xmlns="http://www.topografix.com/GPX/1/1" xmlns:xsi="http://www.w3.org/2001/XMLSchema-instance" xsi:schemaLocation="http://www.topografix.com/GPX/1/1 http://www.topografix.com/GPX/1/1/gpx.xsd" version="1.1" creator="VisuGPX - https://www.visugpx.com">
  <metadata>
    <name>VILLEREAL-14juillet</name>
  </metadata>
  <trk>
    <name><![CDATA[De Miramont-de-Guyenne à Bergerac]]></name>
    <extensions>
      <line xmlns="http://www.topografix.com/GPX/gpx_style/0/2">
        <color>ff00d0</color>
        <width>4</width>
      </line>
    </extensions>
    <trkseg>
      <trkpt lat="44.60229" lon="0.36194">
        <ele>56.722453</ele>
        <time>2022-07-13T16:36:23.975Z</time>
      </trkpt>
      <trkpt lat="44.60276" lon="0.36238">
        <ele>56.740025</ele>
        <time>2022-07-13T16:36:32.375Z</time>
      </trkpt>
      <trkpt lat="44.60284" lon="0.36246">
        <ele>56.892971</ele>
        <time>2022-07-13T16:36:33.986Z</time>
      </trkpt>
      <trkpt lat="44.60347" lon="0.36318">
        <ele>58.167059</ele>
        <time>2022-07-13T16:36:51.643Z</time>
      </trkpt>
      <trkpt lat="44.60358" lon="0.36331">
        <ele>58.392146</ele>
        <time>2022-07-13T16:36:56.173Z</time>
      </trkpt>
      <trkpt lat="44.60377" lon="0.36355">
        <ele>58.790947</ele>
        <time>2022-07-13T16:37:04.008Z</time>
      </trkpt>
      <trkpt lat="44.60413" lon="0.36401">
        <ele>60.377553</ele>
        <time>2022-07-13T16:37:23.414Z</time>
      </trkpt>
      <trkpt lat="44.60528" lon="0.36479">
        <ele>66.998599</ele>
        <time>2022-07-13T16:38:17.267Z</time>
      </trkpt>
      <trkpt lat="44.60547" lon="0.36493">
        <ele>68.103737</ele>
        <time>2022-07-13T16:38:25.384Z</time>
      </trkpt>
      <trkpt lat="44.60579" lon="0.36518">
        <ele>68.852701</ele>
        <time>2022-07-13T16:38:36.698Z</time>
      </trkpt>
      <trkpt lat="44.60701" lon="0.36893">
        <ele>71.386478</ele>
        <time>2022-07-13T16:39:35.177Z</time>
      </trkpt>
      <trkpt lat="44.6071" lon="0.36919">
        <ele>71.483286</ele>
        <time>2022-07-13T16:39:39.942Z</time>
      </trkpt>
      <trkpt lat="44.60716" lon="0.36937">
        <ele>71.55112</ele>
        <time>2022-07-13T16:39:43.240Z</time>
      </trkpt>
      <trkpt lat="44.60737" lon="0.37003">
        <ele>72.021824</ele>
        <time>2022-07-13T16:39:54.033Z</time>
      </trkpt>
      <trkpt lat="44.60739" lon="0.37009">
        <ele>72.066548</ele>
        <time>2022-07-13T16:39:54.946Z</time>
      </trkpt>
      <trkpt lat="44.60774" lon="0.37121">
        <ele>72.881328</ele>
        <time>2022-07-13T16:40:14.537Z</time>
      </trkpt>
      <trkpt lat="44.60776" lon="0.37133">
        <ele>72.965137</ele>
        <time>2022-07-13T16:40:16.627Z</time>
      </trkpt>
      <trkpt lat="44.60778" lon="0.37139">
        <ele>73.00563</ele>
        <time>2022-07-13T16:40:17.581Z</time>
      </trkpt>
      <trkpt lat="44.60785" lon="0.37209">
        <ele>73.66505</ele>
        <time>2022-07-13T16:40:29.100Z</time>
      </trkpt>
      <trkpt lat="44.6081" lon="0.37211">
        <ele>74.08639</ele>
        <time>2022-07-13T16:40:35.102Z</time>
      </trkpt>
      <trkpt lat="44.60865" lon="0.37217">
        <ele>75.011595</ele>
        <time>2022-07-13T16:40:48.141Z</time>
      </trkpt>
      <trkpt lat="44.609" lon="0.37226">
        <ele>75.595545</ele>
        <time>2022-07-13T16:40:56.521Z</time>
      </trkpt>
      <trkpt lat="44.60943" lon="0.37241">
        <ele>76.358602</ele>
        <time>2022-07-13T16:41:08.713Z</time>
      </trkpt>
      <trkpt lat="44.611" lon="0.37299">
        <ele>79.954295</ele>
        <time>2022-07-13T16:41:54.641Z</time>
      </trkpt>
      <trkpt lat="44.61138" lon="0.37316">
        <ele>79.870711</ele>
        <time>2022-07-13T16:42:02.989Z</time>
      </trkpt>
      <trkpt lat="44.61161" lon="0.3731">
        <ele>79.58116</ele>
        <time>2022-07-13T16:42:07.333Z</time>
      </trkpt>
      <trkpt lat="44.61165" lon="0.37311">
        <ele>79.528312</ele>
        <time>2022-07-13T16:42:08.081Z</time>
      </trkpt>
      <trkpt lat="44.6118" lon="0.37335">
        <ele>79.25339</ele>
        <time>2022-07-13T16:42:11.887Z</time>
      </trkpt>
      <trkpt lat="44.61209" lon="0.37349">
        <ele>78.885193</ele>
        <time>2022-07-13T16:42:16.875Z</time>
      </trkpt>
      <trkpt lat="44.61417" lon="0.37365">
        <ele>73.266745</ele>
        <time>2022-07-13T16:42:46.573Z</time>
      </trkpt>
      <trkpt lat="44.61421" lon="0.37365">
        <ele>73.14943</ele>
        <time>2022-07-13T16:42:47.049Z</time>
      </trkpt>
      <trkpt lat="44.6144" lon="0.37372">
        <ele>72.473053</ele>
        <time>2022-07-13T16:42:49.731Z</time>
      </trkpt>
      <trkpt lat="44.61478" lon="0.3741">
        <ele>71.329454</ele>
        <time>2022-07-13T16:42:56.255Z</time>
      </trkpt>
      <trkpt lat="44.61483" lon="0.37416">
        <ele>71.221896</ele>
        <time>2022-07-13T16:42:57.159Z</time>
      </trkpt>
      <trkpt lat="44.61588" lon="0.37528">
        <ele>68.975371</ele>
        <time>2022-07-13T16:43:18.010Z</time>
      </trkpt>
      <trkpt lat="44.61598" lon="0.37539">
        <ele>68.759515</ele>
        <time>2022-07-13T16:43:20.477Z</time>
      </trkpt>
      <trkpt lat="44.61644" lon="0.37599">
        <ele>69.947215</ele>
        <time>2022-07-13T16:43:34.805Z</time>
      </trkpt>
      <trkpt lat="44.61652" lon="0.37625">
        <ele>70.348482</ele>
        <time>2022-07-13T16:43:40.211Z</time>
      </trkpt>
      <trkpt lat="44.61712" lon="0.37759">
        <ele>72.589827</ele>
        <time>2022-07-13T16:44:15.228Z</time>
      </trkpt>
      <trkpt lat="44.61737" lon="0.37801">
        <ele>73.418613</ele>
        <time>2022-07-13T16:44:26.828Z</time>
      </trkpt>
      <trkpt lat="44.61791" lon="0.37844">
        <ele>74.745072</ele>
        <time>2022-07-13T16:44:43.830Z</time>
      </trkpt>
      <trkpt lat="44.61831" lon="0.37885">
        <ele>75.783601</ele>
        <time>2022-07-13T16:44:56.134Z</time>
      </trkpt>
      <trkpt lat="44.61861" lon="0.37916">
        <ele>76.220906</ele>
        <time>2022-07-13T16:45:04.809Z</time>
      </trkpt>
      <trkpt lat="44.61909" lon="0.37977">
        <ele>76.55921</ele>
        <time>2022-07-13T16:45:18.372Z</time>
      </trkpt>
      <trkpt lat="44.61928" lon="0.38002">
        <ele>76.697864</ele>
        <time>2022-07-13T16:45:23.584Z</time>
      </trkpt>
      <trkpt lat="44.61948" lon="0.38028">
        <ele>76.840342</ele>
        <time>2022-07-13T16:45:28.846Z</time>
      </trkpt>
      <trkpt lat="44.61982" lon="0.3807">
        <ele>77.047097</ele>
        <time>2022-07-13T16:45:37.140Z</time>
      </trkpt>
      <trkpt lat="44.62024" lon="0.38123">
        <ele>77.064264</ele>
        <time>2022-07-13T16:45:47.891Z</time>
      </trkpt>
      <trkpt lat="44.62188" lon="0.38334">
        <ele>77.511298</ele>
        <time>2022-07-13T16:46:27.522Z</time>
      </trkpt>
      <trkpt lat="44.62202" lon="0.38351">
        <ele>77.584719</ele>
        <time>2022-07-13T16:46:31.181Z</time>
      </trkpt>
      <trkpt lat="44.62212" lon="0.38362">
        <ele>77.632285</ele>
        <time>2022-07-13T16:46:33.797Z</time>
      </trkpt>
      <trkpt lat="44.6226" lon="0.38402">
        <ele>78.074843</ele>
        <time>2022-07-13T16:46:45.789Z</time>
      </trkpt>
      <trkpt lat="44.62315" lon="0.38428">
        <ele>79.319099</ele>
        <time>2022-07-13T16:46:59.170Z</time>
      </trkpt>
      <trkpt lat="44.62429" lon="0.38433">
        <ele>81.828386</ele>
        <time>2022-07-13T16:47:32.148Z</time>
      </trkpt>
      <trkpt lat="44.62459" lon="0.38449">
        <ele>82.834818</ele>
        <time>2022-07-13T16:47:41.883Z</time>
      </trkpt>
      <trkpt lat="44.62476" lon="0.3849">
        <ele>83.918452</ele>
        <time>2022-07-13T16:47:52.333Z</time>
      </trkpt>
      <trkpt lat="44.62573" lon="0.38839">
        <ele>92.227676</ele>
        <time>2022-07-13T16:49:14.281Z</time>
      </trkpt>
      <trkpt lat="44.62596" lon="0.38877">
        <ele>93.327995</ele>
        <time>2022-07-13T16:49:23.701Z</time>
      </trkpt>
      <trkpt lat="44.62619" lon="0.38892">
        <ele>94.158961</ele>
        <time>2022-07-13T16:49:30.858Z</time>
      </trkpt>
      <trkpt lat="44.62637" lon="0.38896">
        <ele>94.749969</ele>
        <time>2022-07-13T16:49:36.017Z</time>
      </trkpt>
      <trkpt lat="44.62673" lon="0.38884">
        <ele>95.918587</ele>
        <time>2022-07-13T16:49:46.525Z</time>
      </trkpt>
      <trkpt lat="44.62716" lon="0.38821">
        <ele>97.91413</ele>
        <time>2022-07-13T16:50:05.665Z</time>
      </trkpt>
      <trkpt lat="44.62772" lon="0.38724">
        <ele>101.175931</ele>
        <time>2022-07-13T16:50:37.734Z</time>
      </trkpt>
      <trkpt lat="44.62801" lon="0.38673">
        <ele>102.982905</ele>
        <time>2022-07-13T16:50:54.401Z</time>
      </trkpt>
      <trkpt lat="44.62814" lon="0.38651">
        <ele>103.767666</ele>
        <time>2022-07-13T16:51:01.236Z</time>
      </trkpt>
      <trkpt lat="44.62828" lon="0.38636">
        <ele>104.445273</ele>
        <time>2022-07-13T16:51:07.096Z</time>
      </trkpt>
      <trkpt lat="44.62837" lon="0.38635">
        <ele>104.770869</ele>
        <time>2022-07-13T16:51:09.801Z</time>
      </trkpt>
      <trkpt lat="44.62863" lon="0.38644">
        <ele>105.641067</ele>
        <time>2022-07-13T16:51:17.988Z</time>
      </trkpt>
      <trkpt lat="44.62868" lon="0.38646">
        <ele>105.622046</ele>
        <time>2022-07-13T16:51:19.574Z</time>
      </trkpt>
      <trkpt lat="44.62936" lon="0.38666">
        <ele>105.368984</ele>
        <time>2022-07-13T16:51:36.355Z</time>
      </trkpt>
      <trkpt lat="44.62991" lon="0.38644">
        <ele>105.160462</ele>
        <time>2022-07-13T16:51:45.450Z</time>
      </trkpt>
      <trkpt lat="44.63044" lon="0.38591">
        <ele>103.987177</ele>
        <time>2022-07-13T16:51:54.225Z</time>
      </trkpt>
      <trkpt lat="44.63099" lon="0.3855">
        <ele>101.089268</ele>
        <time>2022-07-13T16:52:02.225Z</time>
      </trkpt>
      <trkpt lat="44.63157" lon="0.38545">
        <ele>98.383003</ele>
        <time>2022-07-13T16:52:09.560Z</time>
      </trkpt>
      <trkpt lat="44.6324" lon="0.38556">
        <ele>94.527099</ele>
        <time>2022-07-13T16:52:20.023Z</time>
      </trkpt>
      <trkpt lat="44.63266" lon="0.38576">
        <ele>93.157112</ele>
        <time>2022-07-13T16:52:23.869Z</time>
      </trkpt>
      <trkpt lat="44.63289" lon="0.38606">
        <ele>91.698456</ele>
        <time>2022-07-13T16:52:28.021Z</time>
      </trkpt>
      <trkpt lat="44.63319" lon="0.38668">
        <ele>89.191301</ele>
        <time>2022-07-13T16:52:35.338Z</time>
      </trkpt>
      <trkpt lat="44.63411" lon="0.3873">
        <ele>86.721112</ele>
        <time>2022-07-13T16:52:49.938Z</time>
      </trkpt>
      <trkpt lat="44.63417" lon="0.38735">
        <ele>86.592542</ele>
        <time>2022-07-13T16:52:51.011Z</time>
      </trkpt>
      <trkpt lat="44.63448" lon="0.38741">
        <ele>86.014466</ele>
        <time>2022-07-13T16:52:55.805Z</time>
      </trkpt>
      <trkpt lat="44.6347" lon="0.38736">
        <ele>85.591804</ele>
        <time>2022-07-13T16:52:59.467Z</time>
      </trkpt>
      <trkpt lat="44.63556" lon="0.38717">
        <ele>86.310104</ele>
        <time>2022-07-13T16:53:16.443Z</time>
      </trkpt>
      <trkpt lat="44.63696" lon="0.38758">
        <ele>90.7778</ele>
        <time>2022-07-13T16:54:05.693Z</time>
      </trkpt>
      <trkpt lat="44.63895" lon="0.38818">
        <ele>101.368423</ele>
        <time>2022-07-13T16:55:29.832Z</time>
      </trkpt>
      <trkpt lat="44.63945" lon="0.38824">
        <ele>103.613187</ele>
        <time>2022-07-13T16:55:48.650Z</time>
      </trkpt>
      <trkpt lat="44.64049" lon="0.38822">
        <ele>107.98894</ele>
        <time>2022-07-13T16:56:23.821Z</time>
      </trkpt>
      <trkpt lat="44.64116" lon="0.38805">
        <ele>109.508766</ele>
        <time>2022-07-13T16:56:44.761Z</time>
      </trkpt>
      <trkpt lat="44.64213" lon="0.38689">
        <ele>111.356444</ele>
        <time>2022-07-13T16:57:16.410Z</time>
      </trkpt>
      <trkpt lat="44.64228" lon="0.38667">
        <ele>111.004268</ele>
        <time>2022-07-13T16:57:20.493Z</time>
      </trkpt>
      <trkpt lat="44.64231" lon="0.38664">
        <ele>110.95031</ele>
        <time>2022-07-13T16:57:21.105Z</time>
      </trkpt>
      <trkpt lat="44.64276" lon="0.38625">
        <ele>110.105075</ele>
        <time>2022-07-13T16:57:29.824Z</time>
      </trkpt>
      <trkpt lat="44.64295" lon="0.38615">
        <ele>109.784986</ele>
        <time>2022-07-13T16:57:32.883Z</time>
      </trkpt>
      <trkpt lat="44.64326" lon="0.38613">
        <ele>109.299873</ele>
        <time>2022-07-13T16:57:37.281Z</time>
      </trkpt>
      <trkpt lat="44.64335" lon="0.38617">
        <ele>109.147854</ele>
        <time>2022-07-13T16:57:38.657Z</time>
      </trkpt>
      <trkpt lat="44.64358" lon="0.38673">
        <ele>107.169885</ele>
        <time>2022-07-13T16:57:44.879Z</time>
      </trkpt>
      <trkpt lat="44.64382" lon="0.38884">
        <ele>98.598689</ele>
        <time>2022-07-13T16:58:04.495Z</time>
      </trkpt>
      <trkpt lat="44.64398" lon="0.38923">
        <ele>96.822119</ele>
        <time>2022-07-13T16:58:08.555Z</time>
      </trkpt>
      <trkpt lat="44.64434" lon="0.38939">
        <ele>94.714581</ele>
        <time>2022-07-13T16:58:13.420Z</time>
      </trkpt>
      <trkpt lat="44.6446" lon="0.38942">
        <ele>93.308586</ele>
        <time>2022-07-13T16:58:16.681Z</time>
      </trkpt>
      <trkpt lat="44.64551" lon="0.38902">
        <ele>88.085808</ele>
        <time>2022-07-13T16:58:29.419Z</time>
      </trkpt>
      <trkpt lat="44.64575" lon="0.38886">
        <ele>86.782077</ele>
        <time>2022-07-13T16:58:32.987Z</time>
      </trkpt>
      <trkpt lat="44.64637" lon="0.38812">
        <ele>82.843231</ele>
        <time>2022-07-13T16:58:44.059Z</time>
      </trkpt>
      <trkpt lat="44.64679" lon="0.38776">
        <ele>80.44031</ele>
        <time>2022-07-13T16:58:50.601Z</time>
      </trkpt>
      <trkpt lat="44.64831" lon="0.38684">
        <ele>72.034835</ele>
        <time>2022-07-13T16:59:12.468Z</time>
      </trkpt>
      <trkpt lat="44.6486" lon="0.38673">
        <ele>70.570471</ele>
        <time>2022-07-13T16:59:16.517Z</time>
      </trkpt>
      <trkpt lat="44.64915" lon="0.38674">
        <ele>68.239608</ele>
        <time>2022-07-13T16:59:24.009Z</time>
      </trkpt>
      <trkpt lat="44.65285" lon="0.38736">
        <ele>53.960036</ele>
        <time>2022-07-13T17:00:15.339Z</time>
      </trkpt>
      <trkpt lat="44.65367" lon="0.38749">
        <ele>51.666496</ele>
        <time>2022-07-13T17:00:27.931Z</time>
      </trkpt>
      <trkpt lat="44.65392" lon="0.38746">
        <ele>51.03778</ele>
        <time>2022-07-13T17:00:31.922Z</time>
      </trkpt>
      <trkpt lat="44.6541" lon="0.38735">
        <ele>50.960423</ele>
        <time>2022-07-13T17:00:35.121Z</time>
      </trkpt>
      <trkpt lat="44.65498" lon="0.38849">
        <ele>50.491253</ele>
        <time>2022-07-13T17:00:55.149Z</time>
      </trkpt>
      <trkpt lat="44.655" lon="0.38852">
        <ele>50.479436</ele>
        <time>2022-07-13T17:00:55.723Z</time>
      </trkpt>
      <trkpt lat="44.65545" lon="0.38908">
        <ele>50.859134</ele>
        <time>2022-07-13T17:01:07.848Z</time>
      </trkpt>
      <trkpt lat="44.65527" lon="0.38946">
        <ele>51.510792</ele>
        <time>2022-07-13T17:01:15.969Z</time>
      </trkpt>
      <trkpt lat="44.65565" lon="0.38985">
        <ele>52.466947</ele>
        <time>2022-07-13T17:01:28.652Z</time>
      </trkpt>
      <trkpt lat="44.65642" lon="0.3908">
        <ele>54.632701</ele>
        <time>2022-07-13T17:02:00.047Z</time>
      </trkpt>
      <trkpt lat="44.65922" lon="0.39431">
        <ele>61.822361</ele>
        <time>2022-07-13T17:03:42.431Z</time>
      </trkpt>
      <trkpt lat="44.6597" lon="0.39479">
        <ele>61.640127</ele>
        <time>2022-07-13T17:03:51.959Z</time>
      </trkpt>
      <trkpt lat="44.65979" lon="0.39481">
        <ele>61.612202</ele>
        <time>2022-07-13T17:03:53.635Z</time>
      </trkpt>
      <trkpt lat="44.66" lon="0.39472">
        <ele>61.546246</ele>
        <time>2022-07-13T17:03:57.004Z</time>
      </trkpt>
      <trkpt lat="44.66009" lon="0.39477">
        <ele>61.515913</ele>
        <time>2022-07-13T17:03:58.845Z</time>
      </trkpt>
      <trkpt lat="44.66064" lon="0.39533">
        <ele>61.412373</ele>
        <time>2022-07-13T17:04:09.746Z</time>
      </trkpt>
      <trkpt lat="44.66114" lon="0.39567">
        <ele>61.433174</ele>
        <time>2022-07-13T17:04:18.988Z</time>
      </trkpt>
      <trkpt lat="44.66326" lon="0.39767">
        <ele>63.352537</ele>
        <time>2022-07-13T17:05:17.788Z</time>
      </trkpt>
      <trkpt lat="44.66372" lon="0.39808">
        <ele>63.88836</ele>
        <time>2022-07-13T17:05:30.745Z</time>
      </trkpt>
      <trkpt lat="44.66411" lon="0.39853">
        <ele>64.332685</ele>
        <time>2022-07-13T17:05:42.699Z</time>
      </trkpt>
      <trkpt lat="44.66455" lon="0.39921">
        <ele>64.922918</ele>
        <time>2022-07-13T17:05:56.541Z</time>
      </trkpt>
      <trkpt lat="44.66462" lon="0.3993">
        <ele>65.005719</ele>
        <time>2022-07-13T17:05:58.786Z</time>
      </trkpt>
      <trkpt lat="44.66482" lon="0.39922">
        <ele>65.152393</ele>
        <time>2022-07-13T17:06:02.459Z</time>
      </trkpt>
      <trkpt lat="44.66511" lon="0.39929">
        <ele>64.920217</ele>
        <time>2022-07-13T17:06:08.992Z</time>
      </trkpt>
      <trkpt lat="44.66579" lon="0.39972">
        <ele>64.330702</ele>
        <time>2022-07-13T17:06:21.322Z</time>
      </trkpt>
      <trkpt lat="44.66641" lon="0.40035">
        <ele>63.702801</ele>
        <time>2022-07-13T17:06:32.771Z</time>
      </trkpt>
      <trkpt lat="44.66667" lon="0.40042">
        <ele>63.316238</ele>
        <time>2022-07-13T17:06:36.648Z</time>
      </trkpt>
      <trkpt lat="44.66667" lon="0.40052">
        <ele>63.205532</ele>
        <time>2022-07-13T17:06:37.832Z</time>
      </trkpt>
      <trkpt lat="44.66838" lon="0.40114">
        <ele>60.866679</ele>
        <time>2022-07-13T17:07:06.293Z</time>
      </trkpt>
      <trkpt lat="44.67003" lon="0.40173">
        <ele>59.270302</ele>
        <time>2022-07-13T17:07:35.863Z</time>
      </trkpt>
      <trkpt lat="44.67028" lon="0.40177">
        <ele>58.798191</ele>
        <time>2022-07-13T17:07:40.038Z</time>
      </trkpt>
      <trkpt lat="44.67088" lon="0.40164">
        <ele>57.656561</ele>
        <time>2022-07-13T17:07:49.591Z</time>
      </trkpt>
      <trkpt lat="44.67135" lon="0.40177">
        <ele>56.774374</ele>
        <time>2022-07-13T17:07:56.552Z</time>
      </trkpt>
      <trkpt lat="44.67163" lon="0.40188">
        <ele>56.162918</ele>
        <time>2022-07-13T17:08:00.879Z</time>
      </trkpt>
      <trkpt lat="44.67186" lon="0.40198">
        <ele>55.558435</ele>
        <time>2022-07-13T17:08:04.348Z</time>
      </trkpt>
      <trkpt lat="44.67232" lon="0.40213">
        <ele>54.367041</ele>
        <time>2022-07-13T17:08:11.264Z</time>
      </trkpt>
      <trkpt lat="44.67276" lon="0.4023">
        <ele>53.237744</ele>
        <time>2022-07-13T17:08:17.830Z</time>
      </trkpt>
      <trkpt lat="44.67305" lon="0.40261">
        <ele>52.302739</ele>
        <time>2022-07-13T17:08:23.387Z</time>
      </trkpt>
      <trkpt lat="44.67346" lon="0.40284">
        <ele>51.718059</ele>
        <time>2022-07-13T17:08:30.211Z</time>
      </trkpt>
      <trkpt lat="44.67371" lon="0.40303">
        <ele>51.591985</ele>
        <time>2022-07-13T17:08:34.849Z</time>
      </trkpt>
      <trkpt lat="44.67402" lon="0.40327">
        <ele>51.434271</ele>
        <time>2022-07-13T17:08:41.026Z</time>
      </trkpt>
      <trkpt lat="44.67502" lon="0.40457">
        <ele>51.327913</ele>
        <time>2022-07-13T17:09:08.609Z</time>
      </trkpt>
      <trkpt lat="44.67526" lon="0.40488">
        <ele>51.541014</ele>
        <time>2022-07-13T17:09:15.807Z</time>
      </trkpt>
      <trkpt lat="44.67529" lon="0.40493">
        <ele>51.576531</ele>
        <time>2022-07-13T17:09:17.021Z</time>
      </trkpt>
      <trkpt lat="44.67532" lon="0.40497">
        <ele>51.605178</ele>
        <time>2022-07-13T17:09:17.979Z</time>
      </trkpt>
      <trkpt lat="44.67622" lon="0.40628">
        <ele>52.354542</ele>
        <time>2022-07-13T17:09:45.251Z</time>
      </trkpt>
      <trkpt lat="44.67637" lon="0.40659">
        <ele>52.454766</ele>
        <time>2022-07-13T17:09:50.605Z</time>
      </trkpt>
      <trkpt lat="44.67672" lon="0.40763">
        <ele>52.761229</ele>
        <time>2022-07-13T17:10:06.680Z</time>
      </trkpt>
      <trkpt lat="44.67682" lon="0.4083">
        <ele>52.958239</ele>
        <time>2022-07-13T17:10:15.992Z</time>
      </trkpt>
      <trkpt lat="44.67811" lon="0.40918">
        <ele>53.67736</ele>
        <time>2022-07-13T17:10:44.658Z</time>
      </trkpt>
      <trkpt lat="44.67831" lon="0.40898">
        <ele>53.82185</ele>
        <time>2022-07-13T17:10:49.843Z</time>
      </trkpt>
      <trkpt lat="44.67853" lon="0.40942">
        <ele>54.519235</ele>
        <time>2022-07-13T17:10:58.656Z</time>
      </trkpt>
      <trkpt lat="44.67911" lon="0.41084">
        <ele>56.618203</ele>
        <time>2022-07-13T17:11:28.239Z</time>
      </trkpt>
      <trkpt lat="44.67919" lon="0.4115">
        <ele>57.739612</ele>
        <time>2022-07-13T17:11:41.772Z</time>
      </trkpt>
      <trkpt lat="44.67923" lon="0.41283">
        <ele>60.441663</ele>
        <time>2022-07-13T17:12:09.130Z</time>
      </trkpt>
      <trkpt lat="44.67932" lon="0.4134">
        <ele>61.64359</ele>
        <time>2022-07-13T17:12:21.720Z</time>
      </trkpt>
      <trkpt lat="44.67952" lon="0.41381">
        <ele>62.892231</ele>
        <time>2022-07-13T17:12:32.442Z</time>
      </trkpt>
      <trkpt lat="44.67968" lon="0.41401">
        <ele>63.810961</ele>
        <time>2022-07-13T17:12:39.135Z</time>
      </trkpt>
      <trkpt lat="44.67989" lon="0.41421">
        <ele>64.950438</ele>
        <time>2022-07-13T17:12:47.733Z</time>
      </trkpt>
      <trkpt lat="44.68016" lon="0.41436">
        <ele>66.195836</ele>
        <time>2022-07-13T17:12:57.573Z</time>
      </trkpt>
      <trkpt lat="44.68074" lon="0.41455">
        <ele>68.802953</ele>
        <time>2022-07-13T17:13:19.554Z</time>
      </trkpt>
      <trkpt lat="44.68184" lon="0.41479">
        <ele>74.780951</ele>
        <time>2022-07-13T17:14:04.381Z</time>
      </trkpt>
      <trkpt lat="44.68319" lon="0.41488">
        <ele>82.44259</ele>
        <time>2022-07-13T17:14:59.811Z</time>
      </trkpt>
      <trkpt lat="44.68464" lon="0.41532">
        <ele>90.863559</ele>
        <time>2022-07-13T17:16:00.137Z</time>
      </trkpt>
      <trkpt lat="44.68536" lon="0.41534">
        <ele>94.030022</ele>
        <time>2022-07-13T17:16:29.309Z</time>
      </trkpt>
      <trkpt lat="44.68627" lon="0.41532">
        <ele>97.961078</ele>
        <time>2022-07-13T17:16:59.847Z</time>
      </trkpt>
      <trkpt lat="44.68675" lon="0.41522">
        <ele>98.407982</ele>
        <time>2022-07-13T17:17:13.147Z</time>
      </trkpt>
      <trkpt lat="44.68756" lon="0.41491">
        <ele>98.379823</ele>
        <time>2022-07-13T17:17:28.712Z</time>
      </trkpt>
      <trkpt lat="44.68825" lon="0.4145">
        <ele>97.938612</ele>
        <time>2022-07-13T17:17:39.426Z</time>
      </trkpt>
      <trkpt lat="44.68978" lon="0.41321">
        <ele>94.107954</ele>
        <time>2022-07-13T17:18:04.229Z</time>
      </trkpt>
      <trkpt lat="44.69052" lon="0.41259">
        <ele>95.287948</ele>
        <time>2022-07-13T17:18:21.466Z</time>
      </trkpt>
      <trkpt lat="44.69099" lon="0.4122">
        <ele>96.037645</ele>
        <time>2022-07-13T17:18:38.092Z</time>
      </trkpt>
      <trkpt lat="44.6916" lon="0.41181">
        <ele>98.109248</ele>
        <time>2022-07-13T17:19:01.786Z</time>
      </trkpt>
      <trkpt lat="44.69183" lon="0.41176">
        <ele>99.075371</ele>
        <time>2022-07-13T17:19:10.447Z</time>
      </trkpt>
      <trkpt lat="44.69221" lon="0.41181">
        <ele>100.629803</ele>
        <time>2022-07-13T17:19:25.608Z</time>
      </trkpt>
      <trkpt lat="44.69558" lon="0.41388">
        <ele>111.45536</ele>
        <time>2022-07-13T17:21:17.655Z</time>
      </trkpt>
      <trkpt lat="44.69984" lon="0.41683">
        <ele>110.765576</ele>
        <time>2022-07-13T17:22:38.237Z</time>
      </trkpt>
      <trkpt lat="44.70041" lon="0.41704">
        <ele>110.13864</ele>
        <time>2022-07-13T17:22:47.944Z</time>
      </trkpt>
      <trkpt lat="44.70078" lon="0.41709">
        <ele>109.744859</ele>
        <time>2022-07-13T17:22:53.525Z</time>
      </trkpt>
      <trkpt lat="44.70094" lon="0.4175">
        <ele>109.390907</ele>
        <time>2022-07-13T17:22:58.573Z</time>
      </trkpt>
      <trkpt lat="44.70092" lon="0.41757">
        <ele>109.317914</ele>
        <time>2022-07-13T17:22:59.343Z</time>
      </trkpt>
      <trkpt lat="44.70104" lon="0.41786">
        <ele>108.907771</ele>
        <time>2022-07-13T17:23:02.991Z</time>
      </trkpt>
      <trkpt lat="44.70155" lon="0.41838">
        <ele>107.826465</ele>
        <time>2022-07-13T17:23:12.778Z</time>
      </trkpt>
      <trkpt lat="44.70151" lon="0.41882">
        <ele>107.279564</ele>
        <time>2022-07-13T17:23:17.585Z</time>
      </trkpt>
      <trkpt lat="44.70169" lon="0.41903">
        <ele>106.883921</ele>
        <time>2022-07-13T17:23:21.085Z</time>
      </trkpt>
      <trkpt lat="44.70191" lon="0.41919">
        <ele>106.448717</ele>
        <time>2022-07-13T17:23:25.114Z</time>
      </trkpt>
      <trkpt lat="44.70207" lon="0.41885">
        <ele>106.485346</ele>
        <time>2022-07-13T17:23:29.915Z</time>
      </trkpt>
      <trkpt lat="44.70227" lon="0.41905">
        <ele>106.789379</ele>
        <time>2022-07-13T17:23:34.184Z</time>
      </trkpt>
      <trkpt lat="44.70277" lon="0.41955">
        <ele>107.532399</ele>
        <time>2022-07-13T17:23:47.600Z</time>
      </trkpt>
      <trkpt lat="44.70309" lon="0.42001">
        <ele>108.087959</ele>
        <time>2022-07-13T17:24:01.034Z</time>
      </trkpt>
      <trkpt lat="44.70322" lon="0.42144">
        <ele>110.734785</ele>
        <time>2022-07-13T17:24:33.656Z</time>
      </trkpt>
      <trkpt lat="44.70342" lon="0.42352">
        <ele>114.775136</ele>
        <time>2022-07-13T17:25:20.388Z</time>
      </trkpt>
      <trkpt lat="44.7039" lon="0.42538">
        <ele>116.906244</ele>
        <time>2022-07-13T17:25:53.513Z</time>
      </trkpt>
      <trkpt lat="44.70429" lon="0.42593">
        <ele>116.639618</ele>
        <time>2022-07-13T17:26:03.201Z</time>
      </trkpt>
      <trkpt lat="44.70579" lon="0.42774">
        <ele>115.283429</ele>
        <time>2022-07-13T17:26:36.493Z</time>
      </trkpt>
      <trkpt lat="44.70613" lon="0.42828">
        <ele>114.76351</ele>
        <time>2022-07-13T17:26:45.020Z</time>
      </trkpt>
      <trkpt lat="44.70635" lon="0.4285">
        <ele>114.488369</ele>
        <time>2022-07-13T17:26:49.465Z</time>
      </trkpt>
      <trkpt lat="44.707" lon="0.42874">
        <ele>113.734798</ele>
        <time>2022-07-13T17:27:00.221Z</time>
      </trkpt>
      <trkpt lat="44.70828" lon="0.42993">
        <ele>111.995975</ele>
        <time>2022-07-13T17:27:25.375Z</time>
      </trkpt>
      <trkpt lat="44.7089" lon="0.43025">
        <ele>111.708572</ele>
        <time>2022-07-13T17:27:36.724Z</time>
      </trkpt>
      <trkpt lat="44.70907" lon="0.43034">
        <ele>111.631024</ele>
        <time>2022-07-13T17:27:39.863Z</time>
      </trkpt>
      <trkpt lat="44.70924" lon="0.43053">
        <ele>111.535957</ele>
        <time>2022-07-13T17:27:43.595Z</time>
      </trkpt>
      <trkpt lat="44.70968" lon="0.43149">
        <ele>111.139871</ele>
        <time>2022-07-13T17:27:58.416Z</time>
      </trkpt>
      <trkpt lat="44.70986" lon="0.43173">
        <ele>110.98032</ele>
        <time>2022-07-13T17:28:02.915Z</time>
      </trkpt>
      <trkpt lat="44.71154" lon="0.43345">
        <ele>109.33394</ele>
        <time>2022-07-13T17:28:36.224Z</time>
      </trkpt>
      <trkpt lat="44.71213" lon="0.43385">
        <ele>108.652304</ele>
        <time>2022-07-13T17:28:46.220Z</time>
      </trkpt>
      <trkpt lat="44.71243" lon="0.43411">
        <ele>108.285632</ele>
        <time>2022-07-13T17:28:51.711Z</time>
      </trkpt>
      <trkpt lat="44.71252" lon="0.4342">
        <ele>108.238173</ele>
        <time>2022-07-13T17:28:53.529Z</time>
      </trkpt>
      <trkpt lat="44.71357" lon="0.43521">
        <ele>108.232535</ele>
        <time>2022-07-13T17:29:15.339Z</time>
      </trkpt>
      <trkpt lat="44.71378" lon="0.43536">
        <ele>108.231467</ele>
        <time>2022-07-13T17:29:20.516Z</time>
      </trkpt>
      <trkpt lat="44.71523" lon="0.43555">
        <ele>109.499536</ele>
        <time>2022-07-13T17:29:53.273Z</time>
      </trkpt>
      <trkpt lat="44.71708" lon="0.4354">
        <ele>111.294235</ele>
        <time>2022-07-13T17:30:32.787Z</time>
      </trkpt>
      <trkpt lat="44.71769" lon="0.4356">
        <ele>111.892523</ele>
        <time>2022-07-13T17:30:46.579Z</time>
      </trkpt>
      <trkpt lat="44.71878" lon="0.43682">
        <ele>113.348942</ele>
        <time>2022-07-13T17:31:17.579Z</time>
      </trkpt>
      <trkpt lat="44.71973" lon="0.4383">
        <ele>114.710609</ele>
        <time>2022-07-13T17:31:47.747Z</time>
      </trkpt>
      <trkpt lat="44.71991" lon="0.43848">
        <ele>114.924392</ele>
        <time>2022-07-13T17:31:52.446Z</time>
      </trkpt>
      <trkpt lat="44.72012" lon="0.43851">
        <ele>115.119575</ele>
        <time>2022-07-13T17:31:56.804Z</time>
      </trkpt>
      <trkpt lat="44.72197" lon="0.4377">
        <ele>117.212585</ele>
        <time>2022-07-13T17:32:40.317Z</time>
      </trkpt>
      <trkpt lat="44.7225" lon="0.43724">
        <ele>117.960936</ele>
        <time>2022-07-13T17:32:53.508Z</time>
      </trkpt>
      <trkpt lat="44.72262" lon="0.43724">
        <ele>118.111617</ele>
        <time>2022-07-13T17:32:56.122Z</time>
      </trkpt>
      <trkpt lat="44.72369" lon="0.43861">
        <ele>120.44104</ele>
        <time>2022-07-13T17:33:29.437Z</time>
      </trkpt>
      <trkpt lat="44.7239" lon="0.43893">
        <ele>121.413274</ele>
        <time>2022-07-13T17:33:37.790Z</time>
      </trkpt>
      <trkpt lat="44.72398" lon="0.43913">
        <ele>121.937433</ele>
        <time>2022-07-13T17:33:42.476Z</time>
      </trkpt>
      <trkpt lat="44.72418" lon="0.44">
        <ele>123.959273</ele>
        <time>2022-07-13T17:34:03.971Z</time>
      </trkpt>
      <trkpt lat="44.72453" lon="0.43984">
        <ele>125.113588</ele>
        <time>2022-07-13T17:34:16.944Z</time>
      </trkpt>
      <trkpt lat="44.72492" lon="0.43977">
        <ele>126.513004</ele>
        <time>2022-07-13T17:34:30.742Z</time>
      </trkpt>
      <trkpt lat="44.72558" lon="0.43973">
        <ele>128.889238</ele>
        <time>2022-07-13T17:34:53.156Z</time>
      </trkpt>
      <trkpt lat="44.72622" lon="0.43958">
        <ele>131.254071</ele>
        <time>2022-07-13T17:35:13.548Z</time>
      </trkpt>
      <trkpt lat="44.72658" lon="0.43957">
        <ele>132.215322</ele>
        <time>2022-07-13T17:35:23.559Z</time>
      </trkpt>
      <trkpt lat="44.72736" lon="0.4399">
        <ele>134.083428</ele>
        <time>2022-07-13T17:35:43.960Z</time>
      </trkpt>
      <trkpt lat="44.72803" lon="0.43968">
        <ele>135.673306</ele>
        <time>2022-07-13T17:36:02.555Z</time>
      </trkpt>
      <trkpt lat="44.72841" lon="0.43964">
        <ele>136.541577</ele>
        <time>2022-07-13T17:36:12.943Z</time>
      </trkpt>
      <trkpt lat="44.72894" lon="0.43943">
        <ele>137.842764</ele>
        <time>2022-07-13T17:36:29.284Z</time>
      </trkpt>
      <trkpt lat="44.72975" lon="0.43935">
        <ele>139.750971</ele>
        <time>2022-07-13T17:36:51.259Z</time>
      </trkpt>
      <trkpt lat="44.73015" lon="0.43916">
        <ele>140.244066</ele>
        <time>2022-07-13T17:37:01.717Z</time>
      </trkpt>
      <trkpt lat="44.73042" lon="0.43887">
        <ele>140.524845</ele>
        <time>2022-07-13T17:37:09.086Z</time>
      </trkpt>
      <trkpt lat="44.73071" lon="0.43876">
        <ele>140.771035</ele>
        <time>2022-07-13T17:37:14.755Z</time>
      </trkpt>
      <trkpt lat="44.73131" lon="0.4388">
        <ele>141.260087</ele>
        <time>2022-07-13T17:37:25.603Z</time>
      </trkpt>
      <trkpt lat="44.73177" lon="0.43893">
        <ele>142.113332</ele>
        <time>2022-07-13T17:37:34.538Z</time>
      </trkpt>
      <trkpt lat="44.73225" lon="0.43897">
        <ele>143.461047</ele>
        <time>2022-07-13T17:37:46.274Z</time>
      </trkpt>
      <trkpt lat="44.73287" lon="0.43902">
        <ele>145.217193</ele>
        <time>2022-07-13T17:38:05.731Z</time>
      </trkpt>
      <trkpt lat="44.73486" lon="0.43849">
        <ele>153.813658</ele>
        <time>2022-07-13T17:39:23.948Z</time>
      </trkpt>
      <trkpt lat="44.73527" lon="0.4382">
        <ele>155.383297</ele>
        <time>2022-07-13T17:39:39.524Z</time>
      </trkpt>
      <trkpt lat="44.73582" lon="0.43758">
        <ele>156.903897</ele>
        <time>2022-07-13T17:40:00.330Z</time>
      </trkpt>
      <trkpt lat="44.7363" lon="0.43718">
        <ele>158.114331</ele>
        <time>2022-07-13T17:40:13.502Z</time>
      </trkpt>
      <trkpt lat="44.73665" lon="0.43705">
        <ele>158.767438</ele>
        <time>2022-07-13T17:40:21.393Z</time>
      </trkpt>
      <trkpt lat="44.73722" lon="0.43701">
        <ele>158.365442</ele>
        <time>2022-07-13T17:40:32.651Z</time>
      </trkpt>
      <trkpt lat="44.7374" lon="0.43707">
        <ele>158.231286</ele>
        <time>2022-07-13T17:40:35.990Z</time>
      </trkpt>
      <trkpt lat="44.73797" lon="0.43766">
        <ele>157.727614</ele>
        <time>2022-07-13T17:40:47.470Z</time>
      </trkpt>
      <trkpt lat="44.73811" lon="0.43769">
        <ele>157.627455</ele>
        <time>2022-07-13T17:40:49.643Z</time>
      </trkpt>
      <trkpt lat="44.73873" lon="0.43744">
        <ele>156.916106</ele>
        <time>2022-07-13T17:40:59.352Z</time>
      </trkpt>
      <trkpt lat="44.73956" lon="0.43763">
        <ele>155.876385</ele>
        <time>2022-07-13T17:41:13.078Z</time>
      </trkpt>
      <trkpt lat="44.74025" lon="0.43743">
        <ele>155.467896</ele>
        <time>2022-07-13T17:41:25.259Z</time>
      </trkpt>
      <trkpt lat="44.7408" lon="0.4375">
        <ele>155.813057</ele>
        <time>2022-07-13T17:41:36.542Z</time>
      </trkpt>
      <trkpt lat="44.74118" lon="0.43758">
        <ele>156.053656</ele>
        <time>2022-07-13T17:41:45.274Z</time>
      </trkpt>
      <trkpt lat="44.74166" lon="0.4378">
        <ele>156.371807</ele>
        <time>2022-07-13T17:41:57.227Z</time>
      </trkpt>
      <trkpt lat="44.74281" lon="0.43851">
        <ele>156.758962</ele>
        <time>2022-07-13T17:42:25.589Z</time>
      </trkpt>
      <trkpt lat="44.74312" lon="0.43877">
        <ele>156.857068</ele>
        <time>2022-07-13T17:42:31.980Z</time>
      </trkpt>
      <trkpt lat="44.74336" lon="0.439">
        <ele>156.936215</ele>
        <time>2022-07-13T17:42:36.792Z</time>
      </trkpt>
      <trkpt lat="44.74368" lon="0.43949">
        <ele>155.694252</ele>
        <time>2022-07-13T17:42:44.357Z</time>
      </trkpt>
      <trkpt lat="44.7438" lon="0.4397">
        <ele>155.190051</ele>
        <time>2022-07-13T17:42:47.206Z</time>
      </trkpt>
      <trkpt lat="44.74398" lon="0.43997">
        <ele>154.489857</ele>
        <time>2022-07-13T17:42:51.128Z</time>
      </trkpt>
      <trkpt lat="44.74454" lon="0.44084">
        <ele>152.249066</ele>
        <time>2022-07-13T17:43:03.109Z</time>
      </trkpt>
      <trkpt lat="44.74477" lon="0.4411">
        <ele>151.02885</ele>
        <time>2022-07-13T17:43:07.002Z</time>
      </trkpt>
      <trkpt lat="44.74538" lon="0.4417">
        <ele>147.654661</ele>
        <time>2022-07-13T17:43:16.962Z</time>
      </trkpt>
      <trkpt lat="44.747" lon="0.44263">
        <ele>140.139936</ele>
        <time>2022-07-13T17:43:40.759Z</time>
      </trkpt>
      <trkpt lat="44.74717" lon="0.44243">
        <ele>139.211086</ele>
        <time>2022-07-13T17:43:43.702Z</time>
      </trkpt>
      <trkpt lat="44.74721" lon="0.44238">
        <ele>138.982924</ele>
        <time>2022-07-13T17:43:44.434Z</time>
      </trkpt>
      <trkpt lat="44.74736" lon="0.44277">
        <ele>137.669323</ele>
        <time>2022-07-13T17:43:48.550Z</time>
      </trkpt>
      <trkpt lat="44.74759" lon="0.44297">
        <ele>136.563863</ele>
        <time>2022-07-13T17:43:52.018Z</time>
      </trkpt>
      <trkpt lat="44.74771" lon="0.44302">
        <ele>136.118004</ele>
        <time>2022-07-13T17:43:53.806Z</time>
      </trkpt>
      <trkpt lat="44.74772" lon="0.44303">
        <ele>136.090113</ele>
        <time>2022-07-13T17:43:53.907Z</time>
      </trkpt>
      <trkpt lat="44.74899" lon="0.44357">
        <ele>131.607817</ele>
        <time>2022-07-13T17:44:11.896Z</time>
      </trkpt>
      <trkpt lat="44.74906" lon="0.4436">
        <ele>131.381362</ele>
        <time>2022-07-13T17:44:12.840Z</time>
      </trkpt>
      <trkpt lat="44.74956" lon="0.44385">
        <ele>129.933514</ele>
        <time>2022-07-13T17:44:20.349Z</time>
      </trkpt>
      <trkpt lat="44.74963" lon="0.44388">
        <ele>129.791519</ele>
        <time>2022-07-13T17:44:21.315Z</time>
      </trkpt>
      <trkpt lat="44.74991" lon="0.44401">
        <ele>129.174945</ele>
        <time>2022-07-13T17:44:25.565Z</time>
      </trkpt>
      <trkpt lat="44.75022" lon="0.44412">
        <ele>128.506071</ele>
        <time>2022-07-13T17:44:30.297Z</time>
      </trkpt>
      <trkpt lat="44.75031" lon="0.44415">
        <ele>128.323582</ele>
        <time>2022-07-13T17:44:31.615Z</time>
      </trkpt>
      <trkpt lat="44.75126" lon="0.4445">
        <ele>126.286291</ele>
        <time>2022-07-13T17:44:46.623Z</time>
      </trkpt>
      <trkpt lat="44.75236" lon="0.44492">
        <ele>123.973923</ele>
        <time>2022-07-13T17:45:03.008Z</time>
      </trkpt>
      <trkpt lat="44.75256" lon="0.44506">
        <ele>123.515546</ele>
        <time>2022-07-13T17:45:06.223Z</time>
      </trkpt>
      <trkpt lat="44.7528" lon="0.4454">
        <ele>122.9204</ele>
        <time>2022-07-13T17:45:11.197Z</time>
      </trkpt>
      <trkpt lat="44.75335" lon="0.44652">
        <ele>121.570298</ele>
        <time>2022-07-13T17:45:25.991Z</time>
      </trkpt>
      <trkpt lat="44.75411" lon="0.44798">
        <ele>119.871639</ele>
        <time>2022-07-13T17:45:46.495Z</time>
      </trkpt>
      <trkpt lat="44.75439" lon="0.44821">
        <ele>119.473447</ele>
        <time>2022-07-13T17:45:51.560Z</time>
      </trkpt>
      <trkpt lat="44.75529" lon="0.44851">
        <ele>118.281196</ele>
        <time>2022-07-13T17:46:05.877Z</time>
      </trkpt>
      <trkpt lat="44.75576" lon="0.44878">
        <ele>117.130297</ele>
        <time>2022-07-13T17:46:13.390Z</time>
      </trkpt>
      <trkpt lat="44.75632" lon="0.4492">
        <ele>115.715283</ele>
        <time>2022-07-13T17:46:22.459Z</time>
      </trkpt>
      <trkpt lat="44.75719" lon="0.44999">
        <ele>112.578107</ele>
        <time>2022-07-13T17:46:37.199Z</time>
      </trkpt>
      <trkpt lat="44.75819" lon="0.45079">
        <ele>107.819606</ele>
        <time>2022-07-13T17:46:52.057Z</time>
      </trkpt>
      <trkpt lat="44.7583" lon="0.45082">
        <ele>107.338413</ele>
        <time>2022-07-13T17:46:53.486Z</time>
      </trkpt>
      <trkpt lat="44.75956" lon="0.45156">
        <ele>101.071912</ele>
        <time>2022-07-13T17:47:10.532Z</time>
      </trkpt>
      <trkpt lat="44.76013" lon="0.45214">
        <ele>98.585446</ele>
        <time>2022-07-13T17:47:19.620Z</time>
      </trkpt>
      <trkpt lat="44.76088" lon="0.4535">
        <ele>99.19618</ele>
        <time>2022-07-13T17:47:42.773Z</time>
      </trkpt>
      <trkpt lat="44.76091" lon="0.45357">
        <ele>99.224839</ele>
        <time>2022-07-13T17:47:44.606Z</time>
      </trkpt>
      <trkpt lat="44.76102" lon="0.45377">
        <ele>99.316038</ele>
        <time>2022-07-13T17:47:50.217Z</time>
      </trkpt>
      <trkpt lat="44.76138" lon="0.45448">
        <ele>101.648911</ele>
        <time>2022-07-13T17:48:13.238Z</time>
      </trkpt>
      <trkpt lat="44.76172" lon="0.45497">
        <ele>104.149212</ele>
        <time>2022-07-13T17:48:33.599Z</time>
      </trkpt>
      <trkpt lat="44.76225" lon="0.4555">
        <ele>107.501214</ele>
        <time>2022-07-13T17:49:03.932Z</time>
      </trkpt>
      <trkpt lat="44.76296" lon="0.45685">
        <ele>109.651312</ele>
        <time>2022-07-13T17:49:41.551Z</time>
      </trkpt>
      <trkpt lat="44.76301" lon="0.4569">
        <ele>109.722586</ele>
        <time>2022-07-13T17:49:42.971Z</time>
      </trkpt>
      <trkpt lat="44.76308" lon="0.45697">
        <ele>109.807684</ele>
        <time>2022-07-13T17:49:44.513Z</time>
      </trkpt>
      <trkpt lat="44.76355" lon="0.4571">
        <ele>110.30113</ele>
        <time>2022-07-13T17:49:52.319Z</time>
      </trkpt>
      <trkpt lat="44.76381" lon="0.45739">
        <ele>109.924368</ele>
        <time>2022-07-13T17:49:57.130Z</time>
      </trkpt>
      <trkpt lat="44.76449" lon="0.45839">
        <ele>105.403377</ele>
        <time>2022-07-13T17:50:10.157Z</time>
      </trkpt>
      <trkpt lat="44.76547" lon="0.45902">
        <ele>101.622891</ele>
        <time>2022-07-13T17:50:24.451Z</time>
      </trkpt>
      <trkpt lat="44.76554" lon="0.45918">
        <ele>101.410616</ele>
        <time>2022-07-13T17:50:26.334Z</time>
      </trkpt>
      <trkpt lat="44.76558" lon="0.45956">
        <ele>100.953868</ele>
        <time>2022-07-13T17:50:30.290Z</time>
      </trkpt>
      <trkpt lat="44.76561" lon="0.4598">
        <ele>100.67682</ele>
        <time>2022-07-13T17:50:32.902Z</time>
      </trkpt>
      <trkpt lat="44.76566" lon="0.46006">
        <ele>100.350905</ele>
        <time>2022-07-13T17:50:35.959Z</time>
      </trkpt>
      <trkpt lat="44.76581" lon="0.46028">
        <ele>100.001467</ele>
        <time>2022-07-13T17:50:39.534Z</time>
      </trkpt>
      <trkpt lat="44.76711" lon="0.46179">
        <ele>103.363898</ele>
        <time>2022-07-13T17:51:27.274Z</time>
      </trkpt>
      <trkpt lat="44.76538" lon="0.4654">
        <ele>117.307921</ele>
        <time>2022-07-13T17:53:29.071Z</time>
      </trkpt>
      <trkpt lat="44.76476" lon="0.4667">
        <ele>121.337526</ele>
        <time>2022-07-13T17:54:05.069Z</time>
      </trkpt>
      <trkpt lat="44.76449" lon="0.46724">
        <ele>120.994142</ele>
        <time>2022-07-13T17:54:16.029Z</time>
      </trkpt>
      <trkpt lat="44.76428" lon="0.46817">
        <ele>120.485193</ele>
        <time>2022-07-13T17:54:27.840Z</time>
      </trkpt>
      <trkpt lat="44.76426" lon="0.46825">
        <ele>120.441629</ele>
        <time>2022-07-13T17:54:28.768Z</time>
      </trkpt>
      <trkpt lat="44.76531" lon="0.46879">
        <ele>117.243087</ele>
        <time>2022-07-13T17:54:44.453Z</time>
      </trkpt>
      <trkpt lat="44.76594" lon="0.46885">
        <ele>114.279181</ele>
        <time>2022-07-13T17:54:52.791Z</time>
      </trkpt>
      <trkpt lat="44.76627" lon="0.46894">
        <ele>112.722917</ele>
        <time>2022-07-13T17:54:57.153Z</time>
      </trkpt>
      <trkpt lat="44.76699" lon="0.46947">
        <ele>109.604318</ele>
        <time>2022-07-13T17:55:07.956Z</time>
      </trkpt>
      <trkpt lat="44.76731" lon="0.46973">
        <ele>108.302228</ele>
        <time>2022-07-13T17:55:13.120Z</time>
      </trkpt>
      <trkpt lat="44.7677" lon="0.47003">
        <ele>106.756145</ele>
        <time>2022-07-13T17:55:19.460Z</time>
      </trkpt>
      <trkpt lat="44.76781" lon="0.47002">
        <ele>106.361517</ele>
        <time>2022-07-13T17:55:21.020Z</time>
      </trkpt>
      <trkpt lat="44.77065" lon="0.47062">
        <ele>102.362142</ele>
        <time>2022-07-13T17:56:05.925Z</time>
      </trkpt>
      <trkpt lat="44.77292" lon="0.47152">
        <ele>102.000597</ele>
        <time>2022-07-13T17:56:45.075Z</time>
      </trkpt>
      <trkpt lat="44.77302" lon="0.47155">
        <ele>102.04001</ele>
        <time>2022-07-13T17:56:47.961Z</time>
      </trkpt>
      <trkpt lat="44.77337" lon="0.47161">
        <ele>102.192738</ele>
        <time>2022-07-13T17:56:57.682Z</time>
      </trkpt>
      <trkpt lat="44.77362" lon="0.47154">
        <ele>103.040492</ele>
        <time>2022-07-13T17:57:04.665Z</time>
      </trkpt>
      <trkpt lat="44.77485" lon="0.47091">
        <ele>107.566285</ele>
        <time>2022-07-13T17:57:48.195Z</time>
      </trkpt>
      <trkpt lat="44.77571" lon="0.47081">
        <ele>110.31061</ele>
        <time>2022-07-13T17:58:16.394Z</time>
      </trkpt>
      <trkpt lat="44.77592" lon="0.47075">
        <ele>110.989826</ele>
        <time>2022-07-13T17:58:22.885Z</time>
      </trkpt>
      <trkpt lat="44.77608" lon="0.47064">
        <ele>111.521426</ele>
        <time>2022-07-13T17:58:28.096Z</time>
      </trkpt>
      <trkpt lat="44.77622" lon="0.47037">
        <ele>112.257582</ele>
        <time>2022-07-13T17:58:34.686Z</time>
      </trkpt>
      <trkpt lat="44.77677" lon="0.4682">
        <ele>117.258802</ele>
        <time>2022-07-13T17:59:21.107Z</time>
      </trkpt>
      <trkpt lat="44.77718" lon="0.46743">
        <ele>119.333231</ele>
        <time>2022-07-13T17:59:41.477Z</time>
      </trkpt>
      <trkpt lat="44.77745" lon="0.46718">
        <ele>121.232288</ele>
        <time>2022-07-13T17:59:52.724Z</time>
      </trkpt>
      <trkpt lat="44.77773" lon="0.46711">
        <ele>122.998767</ele>
        <time>2022-07-13T18:00:03.862Z</time>
      </trkpt>
      <trkpt lat="44.77819" lon="0.46719">
        <ele>125.882047</ele>
        <time>2022-07-13T18:00:24.301Z</time>
      </trkpt>
      <trkpt lat="44.77849" lon="0.46747">
        <ele>128.119941</ele>
        <time>2022-07-13T18:00:42.023Z</time>
      </trkpt>
      <trkpt lat="44.77864" lon="0.46766">
        <ele>129.331116</ele>
        <time>2022-07-13T18:00:51.890Z</time>
      </trkpt>
      <trkpt lat="44.77951" lon="0.46872">
        <ele>136.434128</ele>
        <time>2022-07-13T18:01:45.926Z</time>
      </trkpt>
      <trkpt lat="44.78018" lon="0.46912">
        <ele>140.896228</ele>
        <time>2022-07-13T18:02:15.369Z</time>
      </trkpt>
      <trkpt lat="44.7805" lon="0.46947">
        <ele>142.102923</ele>
        <time>2022-07-13T18:02:28.473Z</time>
      </trkpt>
      <trkpt lat="44.78074" lon="0.47004">
        <ele>142.935017</ele>
        <time>2022-07-13T18:02:40.439Z</time>
      </trkpt>
      <trkpt lat="44.78121" lon="0.47234">
        <ele>145.230281</ele>
        <time>2022-07-13T18:03:15.070Z</time>
      </trkpt>
      <trkpt lat="44.78143" lon="0.47318">
        <ele>145.66702</ele>
        <time>2022-07-13T18:03:28.318Z</time>
      </trkpt>
      <trkpt lat="44.78165" lon="0.47346">
        <ele>145.86857</ele>
        <time>2022-07-13T18:03:34.281Z</time>
      </trkpt>
      <trkpt lat="44.7822" lon="0.47399">
        <ele>146.292451</ele>
        <time>2022-07-13T18:03:48.058Z</time>
      </trkpt>
      <trkpt lat="44.783" lon="0.47498">
        <ele>146.93583</ele>
        <time>2022-07-13T18:04:09.764Z</time>
      </trkpt>
      <trkpt lat="44.78366" lon="0.47621">
        <ele>147.663791</ele>
        <time>2022-07-13T18:04:31.043Z</time>
      </trkpt>
      <trkpt lat="44.7837" lon="0.47627">
        <ele>147.703883</ele>
        <time>2022-07-13T18:04:32.279Z</time>
      </trkpt>
      <trkpt lat="44.78404" lon="0.47656">
        <ele>147.97681</ele>
        <time>2022-07-13T18:04:40.505Z</time>
      </trkpt>
      <trkpt lat="44.78489" lon="0.47709">
        <ele>148.790312</ele>
        <time>2022-07-13T18:05:00.587Z</time>
      </trkpt>
      <trkpt lat="44.78572" lon="0.47736">
        <ele>149.729026</ele>
        <time>2022-07-13T18:05:20.009Z</time>
      </trkpt>
      <trkpt lat="44.78729" lon="0.47827">
        <ele>150.620511</ele>
        <time>2022-07-13T18:05:57.104Z</time>
      </trkpt>
      <trkpt lat="44.7875" lon="0.4784">
        <ele>150.677531</ele>
        <time>2022-07-13T18:06:00.744Z</time>
      </trkpt>
      <trkpt lat="44.78771" lon="0.47857">
        <ele>150.740335</ele>
        <time>2022-07-13T18:06:04.783Z</time>
      </trkpt>
      <trkpt lat="44.78792" lon="0.47882">
        <ele>150.614407</ele>
        <time>2022-07-13T18:06:09.020Z</time>
      </trkpt>
      <trkpt lat="44.78838" lon="0.47914">
        <ele>149.844751</ele>
        <time>2022-07-13T18:06:16.838Z</time>
      </trkpt>
      <trkpt lat="44.78845" lon="0.47917">
        <ele>149.734835</ele>
        <time>2022-07-13T18:06:17.885Z</time>
      </trkpt>
      <trkpt lat="44.78883" lon="0.47923">
        <ele>149.146699</ele>
        <time>2022-07-13T18:06:23.657Z</time>
      </trkpt>
      <trkpt lat="44.79008" lon="0.47896">
        <ele>148.076779</ele>
        <time>2022-07-13T18:06:42.664Z</time>
      </trkpt>
      <trkpt lat="44.79037" lon="0.4788">
        <ele>148.079585</ele>
        <time>2022-07-13T18:06:48.148Z</time>
      </trkpt>
      <trkpt lat="44.7908" lon="0.47829">
        <ele>148.084665</ele>
        <time>2022-07-13T18:06:59.360Z</time>
      </trkpt>
      <trkpt lat="44.79142" lon="0.47723">
        <ele>149.552857</ele>
        <time>2022-07-13T18:07:22.773Z</time>
      </trkpt>
      <trkpt lat="44.79191" lon="0.4766">
        <ele>151.17296</ele>
        <time>2022-07-13T18:07:41.726Z</time>
      </trkpt>
      <trkpt lat="44.79244" lon="0.47624">
        <ele>152.640345</ele>
        <time>2022-07-13T18:08:00.184Z</time>
      </trkpt>
      <trkpt lat="44.79346" lon="0.47569">
        <ele>155.557904</ele>
        <time>2022-07-13T18:08:33.372Z</time>
      </trkpt>
      <trkpt lat="44.7941" lon="0.47562">
        <ele>157.304588</ele>
        <time>2022-07-13T18:08:50.978Z</time>
      </trkpt>
      <trkpt lat="44.79424" lon="0.47559">
        <ele>157.264621</ele>
        <time>2022-07-13T18:08:54.499Z</time>
      </trkpt>
      <trkpt lat="44.79357" lon="0.48125">
        <ele>149.7</ele>
      </trkpt>
      <trkpt lat="44.79336" lon="0.48314">
        <ele>150.2</ele>
      </trkpt>
      <trkpt lat="44.79299" lon="0.48494">
        <ele>152.6</ele>
      </trkpt>
      <trkpt lat="44.79241" lon="0.48649">
        <ele>155.5</ele>
      </trkpt>
      <trkpt lat="44.79205" lon="0.48782">
        <ele>160.1</ele>
      </trkpt>
      <trkpt lat="44.79247" lon="0.48803">
        <ele>160.9</ele>
      </trkpt>
      <trkpt lat="44.7929" lon="0.48906">
        <ele>161.1</ele>
      </trkpt>
      <trkpt lat="44.79366" lon="0.49125">
        <ele>164.4</ele>
      </trkpt>
    </trkseg>
  </trk>
</gpx>